Time;durP1;ratioP1;P1;durP2;ratioP2;P2;SDS_P1;SDS_P2;PMS_P1;PMS_P2;Temp;Humidity;BMP_temperature;BMP_pressure;BME280_temperature;BME280_humidity;BME280_pressure;Samples;Min_cycle;Max_cycle;Signal;HPM_P1;HPM_P2
2021/04/29 00:02:22;;;;;;;8.73;7.30;;;13.70;99.90;;;;;;5007143;28;20192;-70
2021/04/29 00:04:48;;;;;;;8.47;7.53;;;13.70;99.90;;;;;;5023861;28;20184;-70
2021/04/29 00:07:14;;;;;;;10.67;7.50;;;13.70;99.90;;;;;;5024225;28;20208;-70
2021/04/29 00:09:39;;;;;;;9.50;7.50;;;13.70;99.90;;;;;;5027299;28;20534;-68
2021/04/29 00:12:06;;;;;;;8.47;7.60;;;13.60;99.90;;;;;;5025266;28;20857;-69
2021/04/29 00:14:32;;;;;;;8.30;7.50;;;13.60;99.90;;;;;;5024766;28;20737;-69
2021/04/29 00:16:57;;;;;;;9.53;8.33;;;13.50;99.90;;;;;;5023705;28;20450;-69
2021/04/29 00:19:23;;;;;;;9.33;7.50;;;13.50;99.90;;;;;;5022764;28;20240;-69
2021/04/29 00:21:49;;;;;;;9.30;7.70;;;13.40;99.90;;;;;;5008596;28;20196;-70
2021/04/29 00:24:15;;;;;;;8.30;6.37;;;13.40;99.90;;;;;;5024965;28;20445;-70
2021/04/29 00:26:40;;;;;;;8.83;7.27;;;13.40;99.90;;;;;;5023817;28;20516;-70
2021/04/29 00:29:06;;;;;;;7.47;6.27;;;13.40;99.90;;;;;;5024979;28;20338;-69
2021/04/29 00:31:32;;;;;;;9.20;7.50;;;13.30;99.90;;;;;;5023407;28;20196;-69
2021/04/29 00:33:58;;;;;;;7.23;6.50;;;13.30;99.90;;;;;;5027096;28;20273;-70
2021/04/29 00:36:23;;;;;;;8.23;6.80;;;13.30;99.90;;;;;;5021402;28;20197;-70
2021/04/29 00:38:49;;;;;;;8.37;7.53;;;13.30;99.90;;;;;;5020734;28;20456;-68
2021/04/29 00:41:15;;;;;;;9.07;7.67;;;13.30;99.90;;;;;;5025700;28;20876;-69
2021/04/29 00:43:40;;;;;;;11.53;7.47;;;13.20;99.90;;;;;;5025519;28;20192;-69
2021/04/29 00:46:12;;;;;;;9.57;7.43;;;13.20;99.90;;;;;;5022261;28;20198;-69
2021/04/29 00:48:39;;;;;;;10.00;7.37;;;13.20;99.90;;;;;;5007931;28;20192;-69
2021/04/29 00:51:05;;;;;;;7.60;6.70;;;13.20;99.90;;;;;;5026564;28;20442;-69
2021/04/29 00:53:37;;;;;;;9.00;7.17;;;13.20;99.90;;;;;;5022455;28;21053;-68
2021/04/29 00:56:03;;;;;;;9.30;7.40;;;13.20;99.90;;;;;;5002885;28;20189;-70
2021/04/29 00:58:29;;;;;;;8.03;6.97;;;13.20;99.90;;;;;;5019537;28;20423;-69
2021/04/29 01:00:55;;;;;;;10.60;8.00;;;13.20;99.90;;;;;;5025154;28;20810;-68
2021/04/29 01:03:31;;;;;;;11.47;9.70;;;13.20;99.90;;;;;;5016860;28;20276;-69
2021/04/29 01:06:03;;;;;;;10.33;8.33;;;13.20;99.90;;;;;;5019031;28;20196;-68
2021/04/29 01:08:34;;;;;;;8.47;7.20;;;13.20;99.90;;;;;;5024667;28;20411;-69
2021/04/29 01:11:10;;;;;;;10.50;7.97;;;13.10;99.90;;;;;;5024169;28;20461;-70
2021/04/29 01:13:38;;;;;;;8.30;6.97;;;13.10;99.90;;;;;;5016259;28;20483;-70
2021/04/29 01:16:05;;;;;;;8.30;7.23;;;13.10;99.90;;;;;;5018914;28;20443;-69
2021/04/29 01:18:31;;;;;;;9.53;7.77;;;13.00;99.90;;;;;;5023478;28;20439;-70
2021/04/29 01:21:04;;;;;;;8.50;7.60;;;13.10;99.90;;;;;;5022820;28;20501;-69
2021/04/29 01:23:44;;;;;;;12.57;6.90;;;13.10;99.90;;;;;;5021358;28;20825;-69
2021/04/29 01:26:40;;;;;;;7.90;7.13;;;13.10;99.90;;;;;;5021179;28;20439;-69
2021/04/29 01:29:13;;;;;;;9.10;7.07;;;12.90;99.90;;;;;;5020117;28;20431;-69
2021/04/29 01:31:41;;;;;;;9.87;7.70;;;12.90;99.90;;;;;;5020838;28;20455;-70
2021/04/29 01:34:09;;;;;;;10.80;7.40;;;12.80;99.90;;;;;;5022306;28;20566;-69
2021/04/29 01:36:36;;;;;;;9.60;8.40;;;12.80;99.90;;;;;;5020220;28;20436;-68
2021/04/29 01:39:08;;;;;;;15.63;9.53;;;12.70;99.90;;;;;;5023973;28;21003;-69
2021/04/29 01:41:38;;;;;;;13.83;10.27;;;12.60;99.90;;;;;;5011317;28;20552;-69
2021/04/29 01:44:08;;;;;;;11.90;9.27;;;12.50;99.90;;;;;;5024167;28;20415;-70
2021/04/29 01:46:35;;;;;;;10.10;8.50;;;12.50;99.90;;;;;;5023596;28;20534;-69
2021/04/29 01:49:02;;;;;;;12.73;9.20;;;12.50;99.90;;;;;;5025811;28;20531;-69
2021/04/29 01:51:28;;;;;;;9.67;8.67;;;12.50;99.90;;;;;;5024847;28;20428;-70
2021/04/29 01:53:54;;;;;;;10.87;9.27;;;12.50;99.90;;;;;;5029068;28;20462;-69
2021/04/29 01:56:20;;;;;;;10.77;9.50;;;12.40;99.90;;;;;;5029045;28;20432;-69
2021/04/29 01:58:46;;;;;;;10.57;8.80;;;12.40;99.90;;;;;;5036974;28;20427;-68
2021/04/29 02:01:12;;;;;;;13.07;8.50;;;12.40;99.90;;;;;;5036952;28;20667;-71
2021/04/29 02:03:39;;;;;;;8.70;7.80;;;12.40;99.90;;;;;;5027770;28;20432;-68
2021/04/29 02:06:04;;;;;;;11.33;8.13;;;12.40;99.90;;;;;;5028934;28;20188;-69
2021/04/29 02:08:30;;;;;;;9.80;6.77;;;12.40;99.90;;;;;;5025263;28;21285;-69
2021/04/29 02:10:58;;;;;;;10.03;7.53;;;12.40;99.90;;;;;;5025813;28;21437;-69
2021/04/29 02:13:27;;;;;;;9.70;7.67;;;12.30;99.90;;;;;;5026224;28;20474;-69
2021/04/29 02:16:05;;;;;;;7.30;6.33;;;12.40;99.90;;;;;;5028679;28;20476;-69
2021/04/29 02:18:33;;;;;;;8.10;6.73;;;12.30;99.90;;;;;;5027247;28;20443;-68
2021/04/29 02:21:00;;;;;;;8.43;7.63;;;12.30;99.90;;;;;;5026993;28;20969;-69
2021/04/29 02:23:28;;;;;;;8.33;6.80;;;12.30;99.90;;;;;;5024321;28;20435;-70
2021/04/29 02:25:56;;;;;;;7.60;6.87;;;12.30;99.90;;;;;;5009599;28;20443;-71
2021/04/29 02:28:22;;;;;;;7.40;6.57;;;12.30;99.90;;;;;;5024013;28;20504;-69
2021/04/29 02:30:49;;;;;;;8.27;6.90;;;12.30;99.90;;;;;;5025625;28;20455;-69
2021/04/29 02:33:16;;;;;;;8.97;6.80;;;12.30;99.90;;;;;;5027974;28;20473;-69
2021/04/29 02:35:44;;;;;;;7.50;6.80;;;12.30;99.90;;;;;;5027093;28;20439;-69
2021/04/29 02:38:13;;;;;;;8.73;6.60;;;12.30;99.90;;;;;;5026519;28;20444;-69
2021/04/29 02:40:38;;;;;;;10.20;7.87;;;12.20;99.90;;;;;;5025850;28;20493;-70
2021/04/29 02:43:05;;;;;;;9.80;8.10;;;12.10;99.90;;;;;;5019905;28;20439;-69
2021/04/29 02:45:31;;;;;;;11.93;8.47;;;12.10;99.90;;;;;;5023904;28;20192;-69
2021/04/29 02:47:57;;;;;;;12.23;9.90;;;12.10;99.90;;;;;;5027734;28;21470;-69
2021/04/29 02:50:25;;;;;;;13.03;9.27;;;12.00;99.90;;;;;;5025486;28;20239;-70
2021/04/29 02:52:52;;;;;;;13.17;9.57;;;12.00;99.90;;;;;;5004340;28;20475;-69
2021/04/29 02:55:19;;;;;;;13.63;10.17;;;11.90;99.90;;;;;;5025132;28;20535;-68
2021/04/29 02:57:45;;;;;;;13.60;10.30;;;11.80;99.90;;;;;;5025672;28;20888;-67
2021/04/29 03:00:14;;;;;;;11.40;8.10;;;11.80;99.90;;;;;;5026675;28;20554;-68
2021/04/29 03:02:40;;;;;;;11.30;9.33;;;11.70;99.90;;;;;;5027342;28;20268;-68
2021/04/29 03:05:12;;;;;;;11.50;9.00;;;11.80;99.90;;;;;;5029540;28;20522;-69
2021/04/29 03:07:38;;;;;;;13.70;9.70;;;11.80;99.90;;;;;;5027982;28;20623;-69
2021/04/29 03:10:06;;;;;;;11.90;9.70;;;11.80;99.90;;;;;;5027629;28;20447;-68
2021/04/29 03:12:32;;;;;;;15.60;8.60;;;11.90;99.90;;;;;;5019722;28;20475;-69
2021/04/29 03:14:58;;;;;;;10.50;9.40;;;11.80;99.90;;;;;;5008934;28;20493;-70
2021/04/29 03:17:23;;;;;;;9.63;8.30;;;11.80;99.90;;;;;;5020634;28;20883;-70
2021/04/29 03:19:49;;;;;;;11.03;9.00;;;11.80;99.90;;;;;;5020437;28;20220;-70
2021/04/29 03:22:15;;;;;;;10.80;9.47;;;11.80;99.90;;;;;;5017660;28;20227;-69
2021/04/29 03:24:41;;;;;;;11.30;8.87;;;11.90;99.90;;;;;;5020452;28;20263;-67
2021/04/29 03:27:06;;;;;;;13.30;9.93;;;11.80;99.90;;;;;;5023080;28;20231;-68
2021/04/29 03:29:32;;;;;;;11.93;9.17;;;11.80;99.90;;;;;;5021835;28;20491;-69
2021/04/29 03:31:58;;;;;;;13.13;9.10;;;11.80;99.90;;;;;;5019071;28;20188;-70
2021/04/29 03:34:24;;;;;;;11.37;9.50;;;11.80;99.90;;;;;;5016858;28;20224;-69
2021/04/29 03:36:49;;;;;;;12.97;9.77;;;11.70;99.90;;;;;;5017299;28;20290;-70
2021/04/29 03:39:15;;;;;;;11.93;9.37;;;11.70;99.90;;;;;;5020835;28;20334;-70
2021/04/29 03:41:40;;;;;;;14.70;11.27;;;11.70;99.90;;;;;;5017801;28;20200;-70
2021/04/29 03:44:06;;;;;;;10.67;8.60;;;11.70;99.90;;;;;;5022625;28;20560;-70
2021/04/29 03:46:31;;;;;;;14.93;9.50;;;11.70;99.90;;;;;;5019949;28;20267;-70
2021/04/29 03:48:57;;;;;;;9.43;8.43;;;11.70;99.90;;;;;;5020241;28;20184;-69
2021/04/29 03:51:23;;;;;;;14.20;10.10;;;11.70;99.90;;;;;;5020670;28;20705;-68
2021/04/29 03:53:48;;;;;;;14.87;9.73;;;11.70;99.90;;;;;;5020546;28;20212;-71
2021/04/29 03:56:14;;;;;;;12.90;10.30;;;11.60;99.90;;;;;;5017472;28;20212;-68
2021/04/29 03:58:39;;;;;;;12.80;9.40;;;11.60;99.90;;;;;;5020289;28;20204;-67
2021/04/29 04:01:05;;;;;;;10.97;8.70;;;11.60;99.90;;;;;;5004466;28;20819;-68
2021/04/29 04:03:31;;;;;;;10.93;8.90;;;11.60;99.90;;;;;;5019197;28;20196;-67
2021/04/29 04:05:56;;;;;;;11.83;8.70;;;11.70;99.90;;;;;;5016728;28;20230;-67
2021/04/29 04:08:22;;;;;;;13.53;8.90;;;11.70;99.90;;;;;;5018701;28;20189;-69
2021/04/29 04:10:48;;;;;;;9.97;8.70;;;11.70;99.90;;;;;;5003582;28;20209;-70
2021/04/29 04:13:20;;;;;;;10.70;8.43;;;11.60;99.90;;;;;;5015713;28;20228;-70
2021/04/29 04:15:47;;;;;;;12.13;8.80;;;11.60;99.90;;;;;;5017374;28;20212;-70
2021/04/29 04:18:13;;;;;;;11.23;8.87;;;11.70;99.90;;;;;;5015862;28;20437;-69
2021/04/29 04:20:40;;;;;;;11.70;9.97;;;11.70;99.90;;;;;;5019699;28;20444;-70
2021/04/29 04:23:05;;;;;;;13.33;9.30;;;11.70;99.90;;;;;;5017753;28;20208;-67
2021/04/29 04:25:31;;;;;;;11.33;8.73;;;11.70;99.90;;;;;;5017780;28;20431;-68
2021/04/29 04:27:57;;;;;;;14.40;9.30;;;11.70;99.90;;;;;;5021046;28;20439;-68
2021/04/29 04:30:23;;;;;;;12.20;9.50;;;11.70;99.90;;;;;;5015868;28;20236;-69
2021/04/29 04:32:48;;;;;;;13.83;10.70;;;11.70;99.90;;;;;;5013716;28;20243;-70
2021/04/29 04:35:15;;;;;;;14.50;11.23;;;11.80;99.90;;;;;;5019490;28;20431;-69
2021/04/29 04:37:41;;;;;;;13.73;10.00;;;11.80;99.90;;;;;;5016573;28;20197;-68
2021/04/29 04:40:07;;;;;;;13.20;11.03;;;11.90;99.90;;;;;;5016885;28;20542;-70
2021/04/29 04:42:33;;;;;;;13.20;9.70;;;11.90;99.90;;;;;;5017414;28;20455;-69
2021/04/29 04:44:59;;;;;;;14.03;10.93;;;12.00;99.90;;;;;;5018589;28;20427;-70
2021/04/29 04:47:25;;;;;;;15.80;11.07;;;12.00;99.90;;;;;;5019172;28;20819;-68
2021/04/29 04:49:51;;;;;;;14.23;10.47;;;12.10;99.90;;;;;;5021387;28;20303;-69
2021/04/29 04:52:16;;;;;;;15.47;11.80;;;12.10;99.90;;;;;;5019790;28;20180;-69
2021/04/29 04:54:42;;;;;;;11.57;9.77;;;12.10;99.90;;;;;;5017838;28;20216;-69
2021/04/29 04:57:11;;;;;;;10.93;9.70;;;12.00;99.90;;;;;;5015946;28;20184;-69
2021/04/29 04:59:37;;;;;;;13.00;10.20;;;12.00;99.90;;;;;;5016420;28;20205;-69
2021/04/29 05:02:04;;;;;;;12.70;10.13;;;12.10;99.90;;;;;;5015978;28;20466;-69
2021/04/29 05:04:29;;;;;;;14.10;10.07;;;12.10;99.90;;;;;;5014959;28;20459;-69
2021/04/29 05:06:56;;;;;;;14.83;10.03;;;12.20;99.90;;;;;;5020837;28;20969;-71
2021/04/29 05:09:22;;;;;;;15.07;10.30;;;12.20;99.90;;;;;;5017794;28;20201;-69
2021/04/29 05:11:48;;;;;;;13.37;10.00;;;12.20;99.90;;;;;;5014047;28;20457;-69
2021/04/29 05:14:14;;;;;;;14.50;9.83;;;12.20;99.90;;;;;;5014554;28;20456;-68
2021/04/29 05:16:40;;;;;;;11.80;8.00;;;12.30;99.90;;;;;;5020758;28;20451;-70
2021/04/29 05:19:06;;;;;;;10.37;9.10;;;12.30;99.90;;;;;;5017494;28;20200;-69
2021/04/29 05:21:32;;;;;;;16.77;8.17;;;12.30;99.90;;;;;;5016421;28;20498;-69
2021/04/29 05:23:57;;;;;;;12.10;8.30;;;12.30;99.90;;;;;;5014051;28;20427;-68
2021/04/29 05:26:23;;;;;;;16.93;8.60;;;12.30;99.90;;;;;;5022291;28;20181;-68
2021/04/29 05:28:48;;;;;;;9.90;8.10;;;12.40;99.90;;;;;;5014829;28;20288;-69
2021/04/29 05:31:14;;;;;;;10.30;7.97;;;12.40;99.90;;;;;;5016340;28;20182;-70
2021/04/29 05:33:40;;;;;;;11.00;8.30;;;12.50;99.90;;;;;;5018610;28;20208;-71
2021/04/29 05:36:05;;;;;;;10.60;8.63;;;12.50;99.90;;;;;;5021784;28;20253;-69
2021/04/29 05:38:31;;;;;;;8.57;7.67;;;12.60;99.90;;;;;;5022016;28;20188;-70
2021/04/29 05:40:57;;;;;;;8.77;7.17;;;12.60;99.90;;;;;;5009284;28;20250;-70
2021/04/29 05:43:22;;;;;;;7.80;6.97;;;12.60;99.90;;;;;;5019438;28;20271;-70
2021/04/29 05:45:48;;;;;;;8.37;7.30;;;12.60;99.90;;;;;;5017621;28;20276;-67
2021/04/29 05:48:14;;;;;;;8.77;6.77;;;12.70;99.90;;;;;;5013198;28;20271;-70
2021/04/29 05:50:39;;;;;;;10.63;6.57;;;12.70;99.90;;;;;;5023428;28;20204;-69
2021/04/29 05:53:05;;;;;;;8.17;7.10;;;12.70;99.90;;;;;;5020406;28;20678;-70
2021/04/29 05:55:30;;;;;;;7.80;5.90;;;12.70;99.90;;;;;;5015568;28;20307;-69
2021/04/29 05:57:59;;;;;;;6.93;5.67;;;12.70;99.90;;;;;;5016153;28;20189;-68
2021/04/29 06:00:25;;;;;;;8.73;6.57;;;12.80;99.90;;;;;;5019951;28;20236;-70
2021/04/29 06:02:50;;;;;;;8.20;6.27;;;12.80;99.90;;;;;;5001183;28;20475;-68
2021/04/29 06:05:16;;;;;;;6.57;5.87;;;12.80;99.90;;;;;;5014389;28;20454;-70
2021/04/29 06:07:42;;;;;;;5.70;5.20;;;12.90;99.90;;;;;;5016994;28;20188;-70
2021/04/29 06:10:08;;;;;;;7.93;6.80;;;13.00;99.90;;;;;;5017145;28;20792;-71
2021/04/29 06:12:34;;;;;;;6.60;5.90;;;13.00;99.90;;;;;;5020149;28;20204;-69
2021/04/29 06:15:00;;;;;;;7.60;5.80;;;13.10;99.90;;;;;;5017739;28;20938;-69
2021/04/29 06:17:25;;;;;;;6.17;4.90;;;13.10;99.90;;;;;;5017601;28;20212;-69
2021/04/29 06:19:51;;;;;;;7.50;6.03;;;13.20;99.90;;;;;;5014670;28;20200;-69
2021/04/29 06:22:17;;;;;;;5.70;5.10;;;13.30;99.90;;;;;;5017730;28;20272;-70
2021/04/29 06:24:43;;;;;;;5.60;5.00;;;13.30;99.90;;;;;;5017502;28;20260;-69
2021/04/29 06:27:08;;;;;;;6.47;4.83;;;13.40;99.90;;;;;;5019877;28;20693;-70
2021/04/29 06:29:34;;;;;;;5.87;4.87;;;13.40;99.90;;;;;;5022247;28;20220;-68
2021/04/29 06:32:01;;;;;;;5.83;4.43;;;13.50;99.90;;;;;;5019642;28;20185;-69
2021/04/29 06:34:27;;;;;;;6.03;5.20;;;13.40;99.90;;;;;;5018412;28;20467;-68
2021/04/29 06:36:53;;;;;;;5.47;4.97;;;13.50;99.90;;;;;;5017452;28;20501;-68
2021/04/29 06:39:19;;;;;;;8.07;4.80;;;13.50;99.90;;;;;;5017155;28;20235;-70
2021/04/29 06:41:46;;;;;;;5.33;4.63;;;13.60;99.90;;;;;;5020343;28;20474;-69
2021/04/29 06:44:13;;;;;;;7.60;5.00;;;13.50;99.90;;;;;;5019540;28;20434;-71
2021/04/29 06:46:39;;;;;;;5.60;5.00;;;13.40;99.90;;;;;;5016549;28;20489;-69
2021/04/29 06:49:06;;;;;;;6.57;4.90;;;13.30;99.90;;;;;;5021070;28;20442;-69
2021/04/29 06:51:32;;;;;;;6.10;4.93;;;13.20;99.90;;;;;;5022298;28;20484;-69
2021/04/29 06:53:58;;;;;;;5.63;4.87;;;13.20;99.90;;;;;;5017305;28;20510;-69
2021/04/29 06:56:24;;;;;;;5.10;4.53;;;13.20;99.90;;;;;;5020258;28;20188;-70
2021/04/29 06:58:50;;;;;;;5.80;4.63;;;13.20;99.90;;;;;;5019015;28;20437;-70
2021/04/29 07:01:16;;;;;;;5.23;4.73;;;13.20;99.90;;;;;;5023194;28;20185;-68
2021/04/29 07:03:41;;;;;;;9.90;4.87;;;13.20;99.90;;;;;;5020563;28;20477;-69
2021/04/29 07:06:07;;;;;;;8.33;5.03;;;13.20;99.90;;;;;;5019366;28;20204;-69
2021/04/29 07:08:33;;;;;;;7.00;5.47;;;13.30;99.90;;;;;;5017076;28;20663;-71
2021/04/29 07:10:58;;;;;;;4.60;4.20;;;13.40;99.90;;;;;;5020927;28;20216;-68
2021/04/29 07:13:24;;;;;;;5.90;4.73;;;13.40;99.90;;;;;;5018706;28;20216;-70
2021/04/29 07:15:50;;;;;;;5.63;5.13;;;13.40;99.90;;;;;;5018275;28;20192;-70
2021/04/29 07:18:15;;;;;;;8.60;5.93;;;13.50;99.90;;;;;;5020549;28;20205;-70
2021/04/29 07:20:41;;;;;;;6.20;4.93;;;13.70;99.90;;;;;;5021357;28;20209;-69
2021/04/29 07:23:08;;;;;;;7.00;5.47;;;13.60;99.90;;;;;;5018115;28;20192;-69
2021/04/29 07:25:34;;;;;;;6.33;5.20;;;13.60;99.90;;;;;;5021048;28;20531;-68
2021/04/29 07:28:00;;;;;;;5.10;4.60;;;13.70;99.90;;;;;;5000960;28;20499;-69
2021/04/29 07:30:26;;;;;;;7.30;5.20;;;13.80;99.90;;;;;;5018920;28;20465;-68
2021/04/29 07:32:53;;;;;;;8.90;5.97;;;14.00;99.90;;;;;;5020297;28;20466;-69
2021/04/29 07:35:21;;;;;;;7.50;5.20;;;14.10;99.90;;;;;;5017280;28;20442;-71
2021/04/29 07:37:46;;;;;;;7.83;5.70;;;14.20;99.90;;;;;;5016808;28;20462;-69
2021/04/29 07:40:12;;;;;;;5.47;4.93;;;14.10;99.90;;;;;;5001147;28;20499;-68
2021/04/29 07:42:38;;;;;;;6.73;5.40;;;14.10;99.90;;;;;;5020435;28;20562;-69
2021/04/29 07:45:04;;;;;;;6.07;5.00;;;13.90;99.90;;;;;;5018212;28;20189;-69
2021/04/29 07:47:30;;;;;;;5.90;5.10;;;13.90;99.90;;;;;;5020750;28;20604;-69
2021/04/29 07:49:56;;;;;;;7.00;6.13;;;13.90;99.90;;;;;;5017919;28;20455;-68
2021/04/29 07:52:21;;;;;;;7.77;5.23;;;13.80;99.90;;;;;;5018990;28;20211;-68
2021/04/29 07:54:47;;;;;;;7.90;6.10;;;13.80;99.90;;;;;;5024689;28;20342;-69
2021/04/29 07:57:13;;;;;;;10.67;5.70;;;13.70;99.90;;;;;;5021001;28;20635;-69
2021/04/29 07:59:38;;;;;;;9.13;6.00;;;13.80;99.90;;;;;;5023344;28;20208;-70
2021/04/29 08:02:04;;;;;;;6.90;5.70;;;13.80;99.90;;;;;;5019852;28;20189;-69
2021/04/29 08:04:30;;;;;;;9.27;5.40;;;13.80;99.90;;;;;;5023003;28;20280;-68
2021/04/29 08:06:56;;;;;;;6.70;5.70;;;13.80;99.90;;;;;;5021460;28;20193;-69
2021/04/29 08:09:22;;;;;;;9.50;5.63;;;13.80;99.90;;;;;;5021085;28;20382;-70
2021/04/29 08:11:48;;;;;;;10.07;5.73;;;14.00;99.90;;;;;;5021416;28;20526;-70
2021/04/29 08:14:13;;;;;;;9.30;7.00;;;14.00;99.90;;;;;;5021182;28;20374;-69
2021/04/29 08:16:39;;;;;;;10.83;6.20;;;14.10;99.90;;;;;;5022403;28;20196;-70
2021/04/29 08:19:05;;;;;;;8.17;7.07;;;14.20;99.90;;;;;;5020762;28;20192;-71
2021/04/29 08:21:30;;;;;;;7.83;6.43;;;14.10;99.90;;;;;;5021888;28;20721;-69
2021/04/29 08:23:57;;;;;;;7.43;6.43;;;14.10;99.90;;;;;;5023184;28;20196;-70
2021/04/29 08:26:24;;;;;;;14.50;8.83;;;14.10;99.90;;;;;;5019565;28;20208;-69
2021/04/29 08:28:50;;;;;;;8.00;6.53;;;14.20;99.90;;;;;;5019484;28;20929;-69
2021/04/29 08:31:16;;;;;;;6.80;6.10;;;14.40;99.90;;;;;;5021197;28;20475;-70
2021/04/29 08:33:41;;;;;;;9.23;7.63;;;14.70;99.90;;;;;;5020161;28;20467;-70
2021/04/29 08:36:08;;;;;;;7.47;6.60;;;14.70;99.90;;;;;;5022229;28;20196;-70
2021/04/29 08:38:35;;;;;;;10.27;7.10;;;14.80;99.90;;;;;;5022295;28;20192;-70
2021/04/29 08:41:02;;;;;;;9.53;6.70;;;14.80;99.90;;;;;;5022599;28;20459;-69
2021/04/29 08:43:28;;;;;;;9.13;6.77;;;14.80;99.90;;;;;;5021294;28;20839;-69
2021/04/29 08:45:54;;;;;;;9.10;6.47;;;14.70;99.90;;;;;;5021672;28;20434;-71
2021/04/29 08:48:24;;;;;;;7.70;7.00;;;14.70;99.90;;;;;;5006733;28;20193;-70
2021/04/29 08:50:51;;;;;;;10.90;7.93;;;14.70;99.90;;;;;;5017784;28;20521;-70
2021/04/29 08:53:17;;;;;;;9.57;7.60;;;14.70;99.90;;;;;;5021998;28;20984;-69
2021/04/29 08:55:43;;;;;;;11.83;7.77;;;14.80;99.90;;;;;;5024822;28;20423;-68
2021/04/29 08:58:09;;;;;;;16.63;7.00;;;15.00;99.90;;;;;;5023585;28;20439;-69
2021/04/29 09:00:36;;;;;;;8.57;7.37;;;15.10;99.90;;;;;;5020535;28;20205;-69
2021/04/29 09:03:02;;;;;;;8.60;7.00;;;15.40;99.90;;;;;;5019956;28;20443;-68
2021/04/29 09:05:30;;;;;;;7.83;7.03;;;15.70;99.90;;;;;;5022707;28;20440;-70
2021/04/29 09:08:07;;;;;;;8.37;7.50;;;15.80;99.90;;;;;;5022286;28;20200;-69
2021/04/29 09:10:37;;;;;;;10.57;7.70;;;15.40;99.90;;;;;;5021561;28;21259;-69
2021/04/29 09:13:23;;;;;;;9.83;7.70;;;15.20;99.90;;;;;;5020163;28;20462;-70
2021/04/29 09:15:50;;;;;;;11.50;7.87;;;15.10;99.90;;;;;;5027987;28;20534;-70
2021/04/29 09:18:20;;;;;;;8.03;7.20;;;15.10;99.90;;;;;;5033746;28;20462;-68
2021/04/29 09:20:55;;;;;;;8.60;7.60;;;15.10;99.90;;;;;;5024399;28;20430;-69
2021/04/29 09:23:26;;;;;;;9.43;8.33;;;15.00;99.90;;;;;;5022644;28;20814;-68
2021/04/29 09:25:58;;;;;;;8.10;7.40;;;14.90;99.90;;;;;;5024685;28;20891;-70
2021/04/29 09:28:51;;;;;;;9.80;7.90;;;14.80;99.90;;;;;;5023171;28;20415;-68
2021/04/29 09:31:22;;;;;;;9.73;7.27;;;14.70;99.90;;;;;;5024251;28;20497;-70
2021/04/29 09:33:52;;;;;;;8.50;6.80;;;14.60;99.90;;;;;;5021127;28;20513;-70
2021/04/29 09:36:30;;;;;;;10.50;8.80;;;14.10;99.90;;;;;;5024256;28;20438;-69
2021/04/29 09:39:11;;;;;;;9.43;8.43;;;13.70;99.90;;;;;;5023647;28;20518;-75
2021/04/29 09:41:41;;;;;;;10.67;7.73;;;13.40;99.90;;;;;;5022072;28;20530;-77
2021/04/29 09:44:12;;;;;;;11.30;10.00;;;13.10;99.90;;;;;;5022566;28;20839;-76
2021/04/29 09:46:46;;;;;;;12.17;10.83;;;12.90;99.90;;;;;;5024924;28;20454;-75
2021/04/29 09:49:29;;;;;;;12.90;10.40;;;12.70;99.90;;;;;;5004046;28;20969;-75
2021/04/29 09:51:57;;;;;;;13.27;9.03;;;12.60;99.90;;;;;;5022644;28;20478;-75
2021/04/29 09:54:31;;;;;;;16.23;11.50;;;12.50;99.90;;;;;;5008207;28;20901;-75
2021/04/29 09:57:04;;;;;;;12.10;10.80;;;12.40;99.90;;;;;;5023652;28;20923;-73
2021/04/29 09:59:31;;;;;;;13.70;11.27;;;12.30;99.90;;;;;;5024530;28;20471;-76
2021/04/29 10:01:58;;;;;;;12.07;10.77;;;12.30;99.90;;;;;;5027664;28;20431;-75
2021/04/29 10:04:28;;;;;;;14.53;10.83;;;12.30;99.90;;;;;;5026902;28;20419;-75
2021/04/29 10:06:56;;;;;;;14.53;11.73;;;12.30;99.90;;;;;;5026468;28;20818;-75
2021/04/29 10:09:28;;;;;;;20.53;11.07;;;12.30;99.90;;;;;;5027774;28;20555;-76
2021/04/29 10:12:02;;;;;;;15.03;11.40;;;12.20;99.90;;;;;;5025403;28;20415;-76
2021/04/29 10:14:34;;;;;;;14.60;11.17;;;12.20;99.90;;;;;;5009481;28;20473;-74
2021/04/29 10:17:11;;;;;;;12.07;10.87;;;12.20;99.90;;;;;;5025542;28;20554;-75
2021/04/29 10:19:41;;;;;;;12.70;10.60;;;12.20;99.90;;;;;;5023788;28;20461;-76
2021/04/29 10:22:07;;;;;;;13.17;11.13;;;12.30;99.90;;;;;;5008528;28;20443;-76
2021/04/29 10:24:34;;;;;;;12.63;10.27;;;12.40;99.90;;;;;;5023094;28;20428;-74
2021/04/29 10:27:05;;;;;;;13.70;11.00;;;12.40;99.90;;;;;;5024620;28;20430;-75
2021/04/29 10:29:31;;;;;;;14.90;10.23;;;12.40;99.90;;;;;;5025790;28;20519;-75
2021/04/29 10:31:58;;;;;;;14.43;11.00;;;12.50;99.90;;;;;;5027946;28;21010;-75
2021/04/29 10:34:35;;;;;;;15.70;11.37;;;12.60;99.90;;;;;;5027659;28;20470;-75
2021/04/29 10:37:01;;;;;;;12.20;10.77;;;12.70;99.90;;;;;;5024677;28;20445;-75
2021/04/29 10:39:26;;;;;;;14.10;11.47;;;12.80;99.90;;;;;;5025670;28;20459;-73
2021/04/29 10:42:08;;;;;;;12.50;10.00;;;12.70;99.90;;;;;;5026840;28;20185;-74
2021/04/29 10:44:45;;;;;;;19.17;10.73;;;12.80;99.90;;;;;;5026383;28;20193;-77
2021/04/29 10:47:22;;;;;;;15.33;10.27;;;12.80;99.90;;;;;;5007818;28;20513;-76
2021/04/29 10:49:48;;;;;;;12.77;9.83;;;12.90;99.90;;;;;;5024709;28;20450;-76
2021/04/29 10:52:15;;;;;;;10.53;8.50;;;13.00;99.90;;;;;;5021327;28;20528;-77
2021/04/29 10:54:51;;;;;;;11.90;8.70;;;13.10;99.90;;;;;;5026741;28;20628;-78
2021/04/29 10:57:18;;;;;;;9.40;8.07;;;13.20;99.90;;;;;;5024936;28;20676;-74
2021/04/29 10:59:54;;;;;;;8.50;7.27;;;13.90;99.90;;;;;;5025814;28;20470;-73
2021/04/29 11:02:26;;;;;;;9.70;7.90;;;14.10;99.90;;;;;;5025327;28;20435;-74
2021/04/29 11:04:54;;;;;;;9.30;8.30;;;14.30;99.90;;;;;;5025819;28;20518;-76
2021/04/29 11:07:22;;;;;;;8.67;7.63;;;14.50;99.90;;;;;;5023145;28;20530;-76
2021/04/29 11:10:10;;;;;;;9.00;8.07;;;14.70;99.90;;;;;;5023980;28;21173;-72
2021/04/29 11:12:41;;;;;;;11.20;7.87;;;16.30;99.90;;;;;;5027590;28;20855;-71
2021/04/29 11:15:27;;;;;;;12.40;7.87;;;17.20;99.90;;;;;;5022697;28;20443;-76
2021/04/29 11:18:03;;;;;;;9.10;7.63;;;19.60;99.90;;;;;;5014900;28;20459;-74
2021/04/29 11:20:39;;;;;;;9.33;8.40;;;21.90;99.90;;;;;;5020094;28;20852;-76
2021/04/29 11:23:05;;;;;;;9.70;8.70;;;22.90;99.90;;;;;;5020805;28;20447;-76
2021/04/29 11:25:32;;;;;;;9.80;8.83;;;24.90;99.90;;;;;;5015545;28;20470;-77
2021/04/29 11:27:58;;;;;;;11.17;9.53;;;27.00;98.60;;;;;;5021844;28;20247;-77
2021/04/29 11:30:24;;;;;;;10.00;9.10;;;28.20;91.60;;;;;;5024704;28;20545;-76
2021/04/29 11:33:08;;;;;;;9.80;8.90;;;28.50;79.10;;;;;;5004584;28;20367;-76
2021/04/29 11:35:39;;;;;;;11.30;10.30;;;28.50;75.50;;;;;;5021578;28;20176;-76
2021/04/29 11:38:07;;;;;;;13.97;9.73;;;27.00;72.20;;;;;;5024168;28;20477;-76
2021/04/29 11:40:34;;;;;;;10.63;9.73;;;25.70;74.90;;;;;;5021584;28;20471;-74
2021/04/29 11:43:01;;;;;;;11.13;10.13;;;25.00;78.70;;;;;;5013543;28;20444;-75
2021/04/29 11:45:42;;;;;;;12.77;10.63;;;23.50;80.70;;;;;;5021200;28;20462;-77
2021/04/29 11:48:08;;;;;;;12.80;11.57;;;23.30;84.40;;;;;;5018607;28;20458;-77
2021/04/29 11:50:42;;;;;;;23.17;20.73;;;22.00;86.00;;;;;;5022328;28;20504;-77
2021/04/29 11:53:16;;;;;;;14.30;12.20;;;20.70;90.10;;;;;;5020281;28;20490;-76
2021/04/29 11:55:43;;;;;;;13.90;12.37;;;19.40;91.90;;;;;;5003195;28;20501;-75
2021/04/29 11:58:14;;;;;;;12.23;10.77;;;18.40;95.60;;;;;;5003891;28;20926;-76
2021/04/29 12:00:42;;;;;;;12.40;11.20;;;17.80;99.20;;;;;;5020703;28;20480;-76
2021/04/29 12:03:09;;;;;;;12.00;10.37;;;17.20;99.90;;;;;;5020324;28;20466;-77
2021/04/29 12:05:41;;;;;;;10.10;8.77;;;16.80;99.90;;;;;;5023248;28;20438;-77
2021/04/29 12:08:17;;;;;;;10.07;9.10;;;16.20;99.90;;;;;;5023370;28;20428;-77
2021/04/29 12:10:50;;;;;;;9.37;8.50;;;15.70;99.90;;;;;;5002103;28;20501;-77
2021/04/29 12:13:17;;;;;;;8.40;7.70;;;15.50;99.90;;;;;;5018895;28;20530;-76
2021/04/29 12:15:43;;;;;;;8.80;8.00;;;15.30;99.90;;;;;;5023837;28;20435;-76
2021/04/29 12:18:10;;;;;;;8.77;7.73;;;15.40;99.90;;;;;;5003064;28;21013;-75
2021/04/29 12:20:36;;;;;;;10.30;8.90;;;15.50;99.90;;;;;;5018049;28;20451;-77
2021/04/29 12:23:02;;;;;;;8.40;7.67;;;15.80;99.90;;;;;;5021366;28;20451;-77
2021/04/29 12:25:31;;;;;;;8.00;7.20;;;15.90;99.90;;;;;;4992763;28;20732;-77
2021/04/29 12:27:57;;;;;;;10.27;6.87;;;16.00;99.90;;;;;;5026650;28;20868;-76
2021/04/29 12:30:27;;;;;;;10.07;7.17;;;16.50;99.90;;;;;;5000886;28;20459;-77
2021/04/29 12:32:55;;;;;;;9.30;8.40;;;16.80;99.90;;;;;;5015015;28;20526;-75
2021/04/29 12:35:37;;;;;;;8.17;7.33;;;16.70;99.90;;;;;;5015656;28;20471;-76
2021/04/29 12:38:03;;;;;;;8.63;7.80;;;16.50;99.90;;;;;;5016428;28;20896;-76
2021/04/29 12:40:32;;;;;;;9.63;7.60;;;16.40;99.90;;;;;;5018451;28;20632;-77
2021/04/29 12:43:12;;;;;;;8.20;7.40;;;16.40;99.90;;;;;;5020764;28;20193;-76
2021/04/29 12:45:57;;;;;;;10.47;7.83;;;16.50;99.90;;;;;;5023779;28;20827;-75